createdAt,value
2022-07-26T00:01:21.289Z,11.30
2022-07-26T00:03:49.795Z,9.10
2022-07-26T00:06:18.248Z,9.03
2022-07-26T00:08:47.502Z,10.60
2022-07-26T00:11:15.822Z,10.00
2022-07-26T00:13:44.075Z,8.80
2022-07-26T00:16:14.023Z,8.20
2022-07-26T00:18:42.463Z,8.03
2022-07-26T00:21:11.582Z,8.20
2022-07-26T00:23:40.147Z,7.50
2022-07-26T00:26:08.537Z,8.80
2022-07-26T00:28:36.843Z,8.70
2022-07-26T00:31:05.652Z,8.47
2022-07-26T00:33:35.266Z,9.10
2022-07-26T00:36:03.483Z,7.30
2022-07-26T00:38:31.842Z,8.07
2022-07-26T00:41:00.266Z,8.10
2022-07-26T00:43:28.528Z,11.37
2022-07-26T00:45:56.814Z,7.87
2022-07-26T00:48:25.219Z,11.83
2022-07-26T00:50:55.813Z,8.73
2022-07-26T00:53:24.991Z,8.03
2022-07-26T00:55:53.752Z,10.50
2022-07-26T00:58:21.991Z,13.20
2022-07-26T01:00:50.276Z,10.00
2022-07-26T01:03:18.574Z,9.33
2022-07-26T01:05:46.762Z,7.57
2022-07-26T01:08:16.331Z,10.03
2022-07-26T01:10:44.882Z,6.73
2022-07-26T01:13:13.252Z,6.83
2022-07-26T01:15:41.567Z,7.17
2022-07-26T01:18:09.871Z,7.57
2022-07-26T01:20:38.056Z,7.73
2022-07-26T01:23:07.888Z,5.57
2022-07-26T01:25:43.316Z,7.13
2022-07-26T01:28:20.051Z,8.63
2022-07-26T01:30:49.199Z,8.00
2022-07-26T01:33:17.707Z,6.07
2022-07-26T01:35:45.917Z,6.23
2022-07-26T01:38:15.614Z,7.77
2022-07-26T01:40:43.919Z,6.40
2022-07-26T01:43:12.166Z,6.57
2022-07-26T01:45:40.445Z,5.03
2022-07-26T01:48:09.643Z,7.57
2022-07-26T01:50:39.239Z,9.43
2022-07-26T01:53:07.456Z,9.53
2022-07-26T01:55:37.243Z,7.07
2022-07-26T01:58:06.048Z,8.00
2022-07-26T02:00:34.918Z,7.97
2022-07-26T02:03:03.284Z,8.03
2022-07-26T02:05:31.559Z,8.20
2022-07-26T02:08:00.019Z,7.73
2022-07-26T02:10:49.665Z,8.83
2022-07-26T02:13:19.436Z,9.80
2022-07-26T02:15:47.800Z,7.93
2022-07-26T02:18:16.106Z,7.80
2022-07-26T02:20:44.464Z,9.10
2022-07-26T02:23:13.176Z,9.67
2022-07-26T02:25:41.335Z,9.73
2022-07-26T02:28:09.615Z,14.63
2022-07-26T02:30:39.385Z,14.00
2022-07-26T02:33:07.685Z,10.63
2022-07-26T02:35:36.060Z,11.47
2022-07-26T02:38:04.812Z,11.53
2022-07-26T02:40:33.222Z,10.27
2022-07-26T02:43:01.590Z,10.33
2022-07-26T02:45:29.887Z,11.00
2022-07-26T02:47:59.527Z,10.83
2022-07-26T02:50:28.671Z,12.33
2022-07-26T02:52:57.076Z,13.57
2022-07-26T02:55:26.372Z,14.10
2022-07-26T02:57:54.712Z,9.87
2022-07-26T03:00:25.613Z,8.90
2022-07-26T03:02:54.138Z,8.53
2022-07-26T03:05:23.812Z,9.37
2022-07-26T03:07:52.146Z,8.37
2022-07-26T03:10:20.386Z,13.80
2022-07-26T03:12:48.552Z,9.13
2022-07-26T03:15:16.766Z,8.80
2022-07-26T03:17:45.017Z,10.93
2022-07-26T03:20:14.137Z,12.27
2022-07-26T03:22:43.830Z,10.13
2022-07-26T03:25:12.347Z,8.60
2022-07-26T03:27:40.585Z,9.47
2022-07-26T03:30:10.774Z,8.30
2022-07-26T03:32:38.981Z,7.40
2022-07-26T03:35:08.185Z,11.37
2022-07-26T03:37:45.615Z,11.90
2022-07-26T03:40:16.450Z,10.27
2022-07-26T03:42:45.332Z,14.03
2022-07-26T03:45:14.186Z,10.37
2022-07-26T03:47:42.475Z,10.30
2022-07-26T03:50:13.635Z,18.30
2022-07-26T03:52:42.073Z,8.90
2022-07-26T03:55:28.573Z,10.23
2022-07-26T03:57:58.201Z,14.17
2022-07-26T04:00:26.525Z,14.43
2022-07-26T04:02:54.835Z,16.00
2022-07-26T04:05:23.457Z,14.30
2022-07-26T04:07:53.251Z,19.03
2022-07-26T04:10:22.069Z,13.83
2022-07-26T04:12:50.321Z,12.50
2022-07-26T04:15:21.303Z,10.90
2022-07-26T04:17:49.786Z,15.40
2022-07-26T04:20:18.431Z,14.63
2022-07-26T04:22:46.646Z,12.20
2022-07-26T04:25:15.228Z,10.63
2022-07-26T04:27:43.833Z,10.30
2022-07-26T04:30:15.449Z,9.40
2022-07-26T04:32:46.712Z,9.50
2022-07-26T04:35:16.632Z,9.53
2022-07-26T04:37:45.764Z,12.07
2022-07-26T04:40:17.925Z,9.10
2022-07-26T04:42:49.833Z,15.27
2022-07-26T04:45:18.034Z,9.83
2022-07-26T04:47:50.749Z,12.17
2022-07-26T04:50:19.294Z,9.87
2022-07-26T04:52:47.517Z,12.70
2022-07-26T04:55:15.760Z,15.73
2022-07-26T04:57:43.962Z,22.43
2022-07-26T05:00:22.546Z,11.33
2022-07-26T05:02:55.023Z,9.70
2022-07-26T05:05:23.816Z,10.83
2022-07-26T05:07:53.878Z,13.77
2022-07-26T05:10:22.998Z,13.20
2022-07-26T05:12:51.674Z,12.37
2022-07-26T05:15:19.939Z,10.37
2022-07-26T05:17:48.461Z,10.20
2022-07-26T05:20:18.342Z,16.43
2022-07-26T05:22:47.075Z,8.07
2022-07-26T05:25:15.359Z,10.73
2022-07-26T05:27:43.544Z,10.13
2022-07-26T05:30:12.645Z,10.17
2022-07-26T05:32:40.886Z,9.17
2022-07-26T05:35:09.974Z,11.23
2022-07-26T05:37:39.616Z,25.87
2022-07-26T05:40:09.280Z,8.60
2022-07-26T05:42:37.591Z,8.57
2022-07-26T05:45:06.771Z,7.60
2022-07-26T05:47:35.036Z,8.77
2022-07-26T05:50:03.376Z,7.67
2022-07-26T05:52:31.687Z,9.50
2022-07-26T05:55:01.384Z,12.17
2022-07-26T05:57:29.694Z,8.10
2022-07-26T05:59:57.920Z,11.20
2022-07-26T06:02:26.189Z,7.80
2022-07-26T06:04:54.538Z,7.83
2022-07-26T06:07:22.847Z,6.40
2022-07-26T06:09:51.091Z,11.00
2022-07-26T06:12:20.641Z,5.63
2022-07-26T06:14:49.045Z,8.67
2022-07-26T06:17:17.393Z,9.70
2022-07-26T06:19:47.762Z,5.00
2022-07-26T06:22:16.659Z,8.10
2022-07-26T06:24:44.857Z,6.83
2022-07-26T06:27:13.109Z,5.10
2022-07-26T06:29:42.755Z,13.33
2022-07-26T06:32:11.074Z,8.40
2022-07-26T06:34:39.363Z,6.10
2022-07-26T06:37:07.574Z,8.93
2022-07-26T06:39:35.799Z,9.67
2022-07-26T06:42:04.089Z,6.37
2022-07-26T06:44:32.343Z,14.10
2022-07-26T06:47:01.913Z,7.60
2022-07-26T06:49:30.280Z,3.93
2022-07-26T06:51:58.676Z,8.33
2022-07-26T06:54:26.877Z,13.30
2022-07-26T06:56:55.097Z,6.53
2022-07-26T06:59:23.302Z,5.70
2022-07-26T07:01:59.816Z,9.80
2022-07-26T07:04:30.784Z,7.37
2022-07-26T07:07:04.530Z,10.43
2022-07-26T07:09:34.049Z,7.70
2022-07-26T07:12:09.367Z,9.80
2022-07-26T07:14:38.557Z,3.40
2022-07-26T07:17:13.034Z,3.20
2022-07-26T07:19:43.595Z,9.23
2022-07-26T07:22:12.832Z,13.17
2022-07-26T07:24:41.567Z,6.10
2022-07-26T07:27:10.673Z,3.00
2022-07-26T07:29:41.326Z,7.10
2022-07-26T07:32:18.242Z,7.30
2022-07-26T07:34:49.139Z,8.77
2022-07-26T07:37:17.455Z,6.77
2022-07-26T07:39:48.690Z,5.73
2022-07-26T07:42:18.256Z,5.67
2022-07-26T07:44:46.578Z,2.00
2022-07-26T07:47:15.266Z,2.50
2022-07-26T07:49:43.637Z,3.40
2022-07-26T07:52:13.222Z,6.40
2022-07-26T07:54:42.140Z,3.90
2022-07-26T07:57:11.003Z,5.60
2022-07-26T07:59:42.764Z,6.60
2022-07-26T08:02:12.814Z,9.10
2022-07-26T08:04:41.270Z,7.27
2022-07-26T08:07:09.614Z,4.30
2022-07-26T08:09:43.160Z,6.60
2022-07-26T08:12:12.303Z,2.87
2022-07-26T08:14:41.458Z,1.27
2022-07-26T08:17:09.894Z,7.70
2022-07-26T08:19:42.206Z,3.37
2022-07-26T08:22:11.310Z,6.40
2022-07-26T08:24:40.876Z,3.23
2022-07-26T08:27:09.231Z,2.70
2022-07-26T08:29:37.478Z,6.00
2022-07-26T08:32:06.685Z,4.43
2022-07-26T08:34:34.954Z,3.90
2022-07-26T08:37:18.688Z,5.00
2022-07-26T08:39:48.582Z,4.57
2022-07-26T08:42:17.050Z,2.63
2022-07-26T08:44:51.212Z,6.23
2022-07-26T08:47:35.388Z,4.43
2022-07-26T08:50:10.043Z,4.03
2022-07-26T08:52:41.069Z,10.70
2022-07-26T08:55:11.621Z,8.63
2022-07-26T08:57:39.855Z,6.90
2022-07-26T09:00:22.631Z,2.40
2022-07-26T09:02:50.854Z,4.20
2022-07-26T09:05:20.390Z,4.33
2022-07-26T09:07:48.697Z,4.53
2022-07-26T09:10:18.276Z,4.30
2022-07-26T09:12:46.556Z,4.00
2022-07-26T09:15:22.347Z,4.93
2022-07-26T09:17:55.678Z,3.83
2022-07-26T09:20:26.140Z,8.47
2022-07-26T09:23:02.642Z,2.97
2022-07-26T09:25:33.756Z,2.20
2022-07-26T09:28:02.291Z,3.00
2022-07-26T09:30:31.677Z,5.73
2022-07-26T09:33:03.125Z,2.60
2022-07-26T09:35:51.079Z,7.20
2022-07-26T09:38:20.328Z,2.90
2022-07-26T09:40:50.844Z,2.97
2022-07-26T09:43:19.695Z,2.47
2022-07-26T09:46:04.874Z,2.90
2022-07-26T09:48:59.323Z,1.00
2022-07-26T09:51:37.472Z,2.10
2022-07-26T09:54:06.045Z,5.43
2022-07-26T09:56:45.895Z,4.40
2022-07-26T09:59:15.271Z,5.30
2022-07-26T10:01:43.852Z,3.80
2022-07-26T10:04:12.384Z,3.40
2022-07-26T10:06:41.093Z,1.90
2022-07-26T10:09:09.438Z,1.23
2022-07-26T10:11:42.608Z,4.10
2022-07-26T10:14:55.208Z,1.30
2022-07-26T10:17:47.222Z,3.97
2022-07-26T10:20:45.607Z,1.40
2022-07-26T10:23:42.882Z,4.73
2022-07-26T10:26:14.146Z,1.73
2022-07-26T10:28:42.930Z,3.87
2022-07-26T10:31:31.811Z,6.70
2022-07-26T10:34:01.542Z,1.80
2022-07-26T10:36:35.983Z,1.30
2022-07-26T10:39:13.359Z,2.40
2022-07-26T10:41:46.577Z,1.50
2022-07-26T10:44:23.702Z,2.30
2022-07-26T10:47:19.532Z,2.10
2022-07-26T10:49:58.163Z,3.67
2022-07-26T10:52:28.129Z,2.80
2022-07-26T10:55:09.907Z,2.53
2022-07-26T10:57:39.336Z,2.00
2022-07-26T11:00:23.214Z,2.70
2022-07-26T11:02:57.134Z,2.70
2022-07-26T11:05:28.883Z,4.17
2022-07-26T11:08:05.348Z,5.83
2022-07-26T11:10:35.292Z,3.07
2022-07-26T11:13:13.755Z,3.27
2022-07-26T11:15:45.271Z,6.37
2022-07-26T11:18:22.337Z,4.67
2022-07-26T11:20:53.489Z,2.50
2022-07-26T11:23:33.419Z,0.90
2022-07-26T11:26:11.869Z,1.33
2022-07-26T11:28:58.187Z,1.10
2022-07-26T11:31:50.604Z,1.67
2022-07-26T11:34:26.475Z,4.37
2022-07-26T11:36:56.655Z,0.90
2022-07-26T11:39:25.956Z,3.50
2022-07-26T11:41:58.526Z,2.43
2022-07-26T11:44:26.928Z,1.30
2022-07-26T11:46:56.082Z,1.20
2022-07-26T11:49:52.241Z,4.97
2022-07-26T11:52:15.398Z,1.87
2022-07-26T11:54:53.723Z,2.70
2022-07-26T11:57:22.198Z,1.30
2022-07-26T11:59:51.199Z,6.33
2022-07-26T12:02:19.427Z,3.40
2022-07-26T12:04:49.087Z,1.70
2022-07-26T12:07:18.814Z,2.03
2022-07-26T12:09:50.764Z,2.00
2022-07-26T12:12:21.927Z,4.67
2022-07-26T12:14:57.802Z,0.90
2022-07-26T12:17:26.027Z,1.13
2022-07-26T12:19:58.757Z,1.27
2022-07-26T12:22:27.506Z,4.27
2022-07-26T12:24:59.579Z,1.20
2022-07-26T12:27:29.441Z,3.03
2022-07-26T12:30:15.291Z,3.07
2022-07-26T12:32:44.310Z,1.60
2022-07-26T12:35:15.231Z,5.57
2022-07-26T12:37:51.416Z,8.40
2022-07-26T12:40:21.061Z,8.43
2022-07-26T12:43:00.733Z,4.63
2022-07-26T12:45:31.642Z,3.60
2022-07-26T12:48:00.969Z,2.40
2022-07-26T12:50:31.427Z,8.73
2022-07-26T12:53:01.798Z,3.27
2022-07-26T12:55:30.013Z,1.87
2022-07-26T12:57:58.433Z,6.60
2022-07-26T13:00:26.676Z,3.80
2022-07-26T13:02:57.350Z,3.03
2022-07-26T13:05:25.610Z,1.53
2022-07-26T13:07:55.567Z,5.17
2022-07-26T13:10:33.739Z,2.23
2022-07-26T13:13:02.677Z,2.13
2022-07-26T13:15:36.174Z,1.07
2022-07-26T13:18:08.420Z,1.10
2022-07-26T13:20:38.381Z,0.90
2022-07-26T13:23:11.607Z,2.53
2022-07-26T13:25:41.997Z,1.33
2022-07-26T13:28:11.347Z,0.80
2022-07-26T13:30:43.010Z,1.00
2022-07-26T13:33:11.682Z,1.10
2022-07-26T13:35:42.421Z,1.13
2022-07-26T13:38:12.079Z,1.10
2022-07-26T13:40:40.438Z,1.77
2022-07-26T13:43:08.680Z,0.90
2022-07-26T13:45:36.911Z,4.90
2022-07-26T13:48:05.612Z,1.73
2022-07-26T13:50:33.810Z,1.00
2022-07-26T13:53:02.262Z,0.90
2022-07-26T13:55:31.866Z,0.90
2022-07-26T13:58:00.007Z,2.20
2022-07-26T14:00:28.850Z,1.20
2022-07-26T14:02:58.829Z,1.87
2022-07-26T14:05:27.607Z,1.30
2022-07-26T14:07:55.910Z,1.93
2022-07-26T14:10:24.498Z,3.90
2022-07-26T14:12:54.444Z,1.23
2022-07-26T14:15:23.641Z,3.63
2022-07-26T14:17:52.426Z,1.00
2022-07-26T14:20:21.198Z,1.10
2022-07-26T14:22:54.038Z,2.23
2022-07-26T14:25:22.847Z,1.90
2022-07-26T14:27:52.904Z,1.23
2022-07-26T14:30:21.486Z,2.80
2022-07-26T14:32:49.905Z,3.20
2022-07-26T14:35:18.342Z,1.17
2022-07-26T14:37:46.622Z,1.37
2022-07-26T14:40:15.944Z,1.33
2022-07-26T14:42:44.266Z,1.40
2022-07-26T14:45:14.130Z,3.73
2022-07-26T14:47:42.431Z,1.40
2022-07-26T14:50:11.836Z,2.00
2022-07-26T14:52:40.602Z,1.47
2022-07-26T14:55:09.591Z,5.53
2022-07-26T14:57:39.654Z,1.30
2022-07-26T15:00:10.067Z,1.20
2022-07-26T15:02:41.213Z,1.10
2022-07-26T15:05:11.270Z,1.63
2022-07-26T15:07:39.619Z,2.23
2022-07-26T15:10:09.158Z,1.20
2022-07-26T15:12:37.669Z,1.33
2022-07-26T15:15:07.487Z,1.33
2022-07-26T15:17:36.233Z,0.80
2022-07-26T15:20:07.917Z,1.20
2022-07-26T15:22:36.310Z,3.00
2022-07-26T15:25:04.737Z,1.10
2022-07-26T15:27:33.081Z,1.97
2022-07-26T15:30:05.165Z,4.93
2022-07-26T15:32:36.353Z,3.33
2022-07-26T15:35:07.423Z,0.90
2022-07-26T15:37:43.698Z,1.77
2022-07-26T15:40:12.899Z,1.90
2022-07-26T15:42:42.909Z,1.07
2022-07-26T15:45:13.326Z,1.27
2022-07-26T15:48:08.122Z,1.50
2022-07-26T15:50:31.542Z,0.80
2022-07-26T15:52:59.793Z,1.90
2022-07-26T15:55:28.187Z,2.30
2022-07-26T15:57:56.421Z,3.03
2022-07-26T16:00:24.690Z,1.23
2022-07-26T16:02:53.166Z,0.70
2022-07-26T16:05:21.457Z,2.50
2022-07-26T16:07:51.248Z,5.47
2022-07-26T16:10:19.473Z,0.80
2022-07-26T16:12:48.079Z,0.80
2022-07-26T16:15:16.333Z,3.17
2022-07-26T16:17:44.723Z,0.90
2022-07-26T16:20:13.095Z,0.70
2022-07-26T16:22:42.018Z,1.43
2022-07-26T16:25:13.757Z,0.87
2022-07-26T16:27:43.348Z,1.00
2022-07-26T16:30:13.951Z,5.17
2022-07-26T16:32:42.238Z,0.70
2022-07-26T16:35:11.458Z,1.33
2022-07-26T16:37:39.869Z,0.80
2022-07-26T16:40:09.824Z,0.97
2022-07-26T16:42:39.471Z,0.70
2022-07-26T16:45:09.774Z,2.30
2022-07-26T16:47:38.016Z,1.53
2022-07-26T16:50:07.395Z,4.23
2022-07-26T16:52:35.674Z,1.27
2022-07-26T16:55:05.602Z,1.03
2022-07-26T16:57:33.847Z,2.33
2022-07-26T17:00:03.801Z,0.70
2022-07-26T17:02:32.103Z,0.50
2022-07-26T17:05:00.340Z,1.43
2022-07-26T17:07:28.554Z,2.43
2022-07-26T17:09:56.918Z,1.80
2022-07-26T17:12:25.315Z,1.33
2022-07-26T17:14:53.672Z,0.70
2022-07-26T17:17:23.891Z,1.63
2022-07-26T17:19:52.109Z,1.37
2022-07-26T17:22:20.418Z,1.70
2022-07-26T17:24:49.021Z,2.93
2022-07-26T17:27:17.488Z,0.80
2022-07-26T17:29:45.761Z,0.60
2022-07-26T17:32:14.025Z,0.50
2022-07-26T17:34:43.593Z,2.37
2022-07-26T17:37:12.590Z,1.50
2022-07-26T17:39:51.486Z,0.60
2022-07-26T17:42:22.253Z,0.60
2022-07-26T17:44:50.692Z,0.67
2022-07-26T17:47:28.821Z,1.13
2022-07-26T17:50:26.241Z,0.93
2022-07-26T17:52:49.897Z,2.03
2022-07-26T17:55:19.557Z,0.90
2022-07-26T17:57:48.369Z,1.60
2022-07-26T18:00:18.577Z,0.60
2022-07-26T18:02:46.846Z,1.70
2022-07-26T18:05:18.218Z,0.67
2022-07-26T18:07:46.666Z,1.33
2022-07-26T18:10:15.425Z,0.50
2022-07-26T18:12:43.648Z,0.70
2022-07-26T18:15:12.426Z,0.70
2022-07-26T18:17:40.693Z,1.07
2022-07-26T18:20:10.674Z,2.00
2022-07-26T18:22:40.600Z,2.53
2022-07-26T18:25:09.853Z,1.87
2022-07-26T18:27:38.090Z,0.97
2022-07-26T18:30:07.809Z,0.60
2022-07-26T18:32:36.060Z,1.90
2022-07-26T18:35:05.973Z,5.20
2022-07-26T18:37:34.451Z,1.67
2022-07-26T18:40:04.697Z,2.00
2022-07-26T18:42:32.956Z,0.83
2022-07-26T18:45:01.202Z,1.60
2022-07-26T18:47:29.466Z,0.60
2022-07-26T18:49:57.702Z,2.10
2022-07-26T18:52:28.379Z,2.77
2022-07-26T18:55:00.196Z,0.90
2022-07-26T18:57:29.824Z,1.30
2022-07-26T18:59:58.087Z,6.43
2022-07-26T19:02:26.352Z,1.80
2022-07-26T19:04:54.714Z,1.27
2022-07-26T19:07:22.941Z,3.03
2022-07-26T19:09:56.364Z,3.00
2022-07-26T19:12:27.259Z,0.70
2022-07-26T19:14:56.852Z,1.00
2022-07-26T19:17:25.082Z,1.30
2022-07-26T19:19:53.387Z,1.10
2022-07-26T19:22:22.666Z,2.30
2022-07-26T19:24:50.981Z,3.07
2022-07-26T19:27:19.297Z,2.40
2022-07-26T19:29:48.675Z,1.50
2022-07-26T19:32:18.333Z,1.30
2022-07-26T19:34:46.550Z,1.27
2022-07-26T19:37:19.776Z,1.20
2022-07-26T19:39:48.492Z,0.60
2022-07-26T19:42:16.727Z,3.80
2022-07-26T19:44:45.673Z,2.40
2022-07-26T19:47:14.179Z,0.97
2022-07-26T19:49:43.795Z,1.07
2022-07-26T19:52:12.139Z,1.63
2022-07-26T19:54:40.622Z,4.53
2022-07-26T19:57:08.986Z,2.70
2022-07-26T19:59:37.210Z,4.40
2022-07-26T20:02:06.227Z,1.40
2022-07-26T20:04:34.529Z,1.20
2022-07-26T20:07:04.379Z,3.10
2022-07-26T20:09:32.618Z,2.87
2022-07-26T20:12:00.930Z,1.63
2022-07-26T20:14:29.212Z,1.40
2022-07-26T20:16:58.172Z,1.43
2022-07-26T20:19:28.072Z,0.73
2022-07-26T20:21:56.466Z,3.20
2022-07-26T20:24:26.189Z,4.93
2022-07-26T20:26:54.475Z,2.20
2022-07-26T20:29:22.751Z,4.80
2022-07-26T20:31:50.965Z,3.30
2022-07-26T20:34:19.192Z,4.10
2022-07-26T20:36:47.665Z,3.27
2022-07-26T20:39:15.877Z,3.13
2022-07-26T20:41:45.399Z,3.07
2022-07-26T20:44:14.320Z,1.33
2022-07-26T20:46:42.645Z,4.10
2022-07-26T20:49:11.471Z,9.57
2022-07-26T20:51:39.917Z,7.53
2022-07-26T20:54:08.621Z,9.63
2022-07-26T20:56:37.206Z,3.67
2022-07-26T20:59:06.831Z,2.60
2022-07-26T21:01:35.209Z,4.77
2022-07-26T21:04:03.677Z,4.80
2022-07-26T21:06:33.186Z,9.60
2022-07-26T21:09:09.023Z,4.43
2022-07-26T21:11:39.285Z,5.07
2022-07-26T21:14:08.894Z,2.30
2022-07-26T21:16:37.478Z,1.83
2022-07-26T21:19:05.797Z,7.20
2022-07-26T21:21:37.018Z,2.70
2022-07-26T21:24:06.505Z,9.60
2022-07-26T21:26:35.014Z,6.37
2022-07-26T21:29:03.201Z,8.63
2022-07-26T21:31:32.817Z,1.70
2022-07-26T21:34:01.134Z,3.77
2022-07-26T21:36:29.349Z,5.87
2022-07-26T21:38:59.459Z,2.53
2022-07-26T21:41:28.087Z,4.67
2022-07-26T21:43:56.367Z,4.53
2022-07-26T21:46:24.656Z,6.53
2022-07-26T21:48:54.362Z,2.03
2022-07-26T21:51:22.647Z,5.43
2022-07-26T21:53:50.900Z,6.40
2022-07-26T21:56:19.142Z,3.07
2022-07-26T21:58:47.427Z,5.10
2022-07-26T22:01:15.788Z,3.57
2022-07-26T22:03:44.198Z,15.63
2022-07-26T22:06:13.779Z,4.20
2022-07-26T22:08:42.021Z,13.93
2022-07-26T22:11:10.296Z,6.23
2022-07-26T22:13:38.681Z,7.13
2022-07-26T22:16:07.411Z,5.90
2022-07-26T22:18:35.691Z,5.73
2022-07-26T22:21:03.925Z,3.67
2022-07-26T22:23:33.550Z,3.37
2022-07-26T22:26:03.187Z,4.10
2022-07-26T22:28:31.671Z,4.00
2022-07-26T22:31:00.092Z,10.50
2022-07-26T22:33:28.303Z,2.87
2022-07-26T22:35:56.505Z,4.73
2022-07-26T22:38:24.782Z,4.57
2022-07-26T22:40:54.402Z,3.67
2022-07-26T22:43:22.645Z,9.73
2022-07-26T22:45:50.915Z,4.37
2022-07-26T22:48:19.152Z,7.03
2022-07-26T22:50:47.437Z,6.20
2022-07-26T22:53:16.368Z,7.87
2022-07-26T22:55:44.562Z,7.30
2022-07-26T22:58:14.283Z,6.63
2022-07-26T23:00:42.676Z,4.87
2022-07-26T23:03:20.228Z,5.03
2022-07-26T23:05:50.556Z,5.57
2022-07-26T23:11:08.841Z,9.00
2022-07-26T23:13:38.420Z,4.10
2022-07-26T23:16:06.943Z,3.00
2022-07-26T23:18:35.482Z,5.53
2022-07-26T23:21:04.201Z,5.33
2022-07-26T23:23:32.617Z,4.60
2022-07-26T23:26:01.048Z,3.37
2022-07-26T23:28:35.599Z,4.53
2022-07-26T23:31:08.852Z,13.70
2022-07-26T23:33:52.017Z,6.47
2022-07-26T23:36:26.660Z,7.87
2022-07-26T23:38:55.097Z,5.77
2022-07-26T23:41:23.443Z,1.83
2022-07-26T23:43:51.779Z,8.70
2022-07-26T23:46:21.440Z,6.13
2022-07-26T23:48:49.863Z,2.93
2022-07-26T23:51:19.537Z,10.77
2022-07-26T23:53:47.863Z,7.70
2022-07-26T23:56:16.134Z,9.20
2022-07-26T23:58:45.334Z,5.87
